sensor_id;sensor_type;location;lat;lon;timestamp;pressure;altitude;pressure_sealevel;temperature
10869;BMP180;62667;48.698;8.762;2023-07-31T00:01:01;96096.00;;;15.40
10869;BMP180;62667;48.698;8.762;2023-07-31T00:03:30;96095.00;;;15.40
10869;BMP180;62667;48.698;8.762;2023-07-31T00:05:57;96095.00;;;15.30
10869;BMP180;62667;48.698;8.762;2023-07-31T00:08:24;96100.00;;;15.30
10869;BMP180;62667;48.698;8.762;2023-07-31T00:10:52;96102.00;;;15.30
10869;BMP180;62667;48.698;8.762;2023-07-31T00:13:20;96107.00;;;15.30
10869;BMP180;62667;48.698;8.762;2023-07-31T00:15:47;96096.00;;;15.40
10869;BMP180;62667;48.698;8.762;2023-07-31T00:18:15;96096.00;;;15.40
10869;BMP180;62667;48.698;8.762;2023-07-31T00:20:44;96096.00;;;15.50
10869;BMP180;62667;48.698;8.762;2023-07-31T00:23:12;96100.00;;;15.40
10869;BMP180;62667;48.698;8.762;2023-07-31T00:25:39;96095.00;;;15.30
10869;BMP180;62667;48.698;8.762;2023-07-31T00:28:06;96092.00;;;15.30
10869;BMP180;62667;48.698;8.762;2023-07-31T00:30:34;96089.00;;;15.30
10869;BMP180;62667;48.698;8.762;2023-07-31T00:33:01;96089.00;;;15.20
10869;BMP180;62667;48.698;8.762;2023-07-31T00:35:29;96091.00;;;15.20
10869;BMP180;62667;48.698;8.762;2023-07-31T00:37:58;96093.00;;;15.20
10869;BMP180;62667;48.698;8.762;2023-07-31T00:40:26;96087.00;;;15.30
10869;BMP180;62667;48.698;8.762;2023-07-31T00:42:53;96079.00;;;15.30
10869;BMP180;62667;48.698;8.762;2023-07-31T00:45:22;96076.00;;;15.30
10869;BMP180;62667;48.698;8.762;2023-07-31T00:47:50;96090.00;;;15.30
10869;BMP180;62667;48.698;8.762;2023-07-31T00:50:18;96092.00;;;15.20
10869;BMP180;62667;48.698;8.762;2023-07-31T00:52:45;96091.00;;;15.20
10869;BMP180;62667;48.698;8.762;2023-07-31T00:55:14;96093.00;;;15.10
10869;BMP180;62667;48.698;8.762;2023-07-31T00:57:42;96092.00;;;14.90
10869;BMP180;62667;48.698;8.762;2023-07-31T01:00:10;96088.00;;;14.90
10869;BMP180;62667;48.698;8.762;2023-07-31T01:02:38;96085.00;;;14.80
10869;BMP180;62667;48.698;8.762;2023-07-31T01:05:06;96087.00;;;14.80
10869;BMP180;62667;48.698;8.762;2023-07-31T01:07:42;96081.00;;;14.80
10869;BMP180;62667;48.698;8.762;2023-07-31T01:10:19;96075.00;;;14.90
10869;BMP180;62667;48.698;8.762;2023-07-31T01:12:48;96078.00;;;14.90
10869;BMP180;62667;48.698;8.762;2023-07-31T01:15:18;96070.00;;;14.90
10869;BMP180;62667;48.698;8.762;2023-07-31T01:17:46;96071.00;;;15.00
10869;BMP180;62667;48.698;8.762;2023-07-31T01:20:17;96069.00;;;14.90
10869;BMP180;62667;48.698;8.762;2023-07-31T01:23:00;96073.00;;;15.00
10869;BMP180;62667;48.698;8.762;2023-07-31T01:25:48;96073.00;;;14.90
10869;BMP180;62667;48.698;8.762;2023-07-31T01:28:21;96072.00;;;14.90
10869;BMP180;62667;48.698;8.762;2023-07-31T01:30:51;96076.00;;;14.80
10869;BMP180;62667;48.698;8.762;2023-07-31T01:33:19;96075.00;;;14.70
10869;BMP180;62667;48.698;8.762;2023-07-31T01:35:49;96070.00;;;14.80
10869;BMP180;62667;48.698;8.762;2023-07-31T01:38:21;96071.00;;;14.70
10869;BMP180;62667;48.698;8.762;2023-07-31T01:40:53;96055.00;;;14.60
10869;BMP180;62667;48.698;8.762;2023-07-31T01:43:21;96058.00;;;14.70
10869;BMP180;62667;48.698;8.762;2023-07-31T01:45:49;96061.00;;;14.60
10869;BMP180;62667;48.698;8.762;2023-07-31T01:48:16;96052.00;;;14.60
10869;BMP180;62667;48.698;8.762;2023-07-31T01:50:44;96055.00;;;14.60
10869;BMP180;62667;48.698;8.762;2023-07-31T01:53:11;96057.00;;;14.60
10869;BMP180;62667;48.698;8.762;2023-07-31T01:55:39;96058.00;;;14.50
10869;BMP180;62667;48.698;8.762;2023-07-31T01:58:08;96045.00;;;14.60
10869;BMP180;62667;48.698;8.762;2023-07-31T02:00:35;96042.00;;;14.60
10869;BMP180;62667;48.698;8.762;2023-07-31T02:03:03;96043.00;;;14.50
10869;BMP180;62667;48.698;8.762;2023-07-31T02:05:30;96041.00;;;14.50
10869;BMP180;62667;48.698;8.762;2023-07-31T02:07:57;96045.00;;;14.60
10869;BMP180;62667;48.698;8.762;2023-07-31T02:10:25;96040.00;;;14.60
10869;BMP180;62667;48.698;8.762;2023-07-31T02:12:52;96032.00;;;14.60
10869;BMP180;62667;48.698;8.762;2023-07-31T02:15:21;96036.00;;;14.50
10869;BMP180;62667;48.698;8.762;2023-07-31T02:17:48;96022.00;;;14.60
10869;BMP180;62667;48.698;8.762;2023-07-31T02:20:16;96025.00;;;14.50
10869;BMP180;62667;48.698;8.762;2023-07-31T02:22:43;96025.00;;;14.60
10869;BMP180;62667;48.698;8.762;2023-07-31T02:25:11;96020.00;;;14.60
10869;BMP180;62667;48.698;8.762;2023-07-31T02:27:38;96020.00;;;14.60
10869;BMP180;62667;48.698;8.762;2023-07-31T02:30:06;96025.00;;;14.60
10869;BMP180;62667;48.698;8.762;2023-07-31T02:32:35;96017.00;;;14.60
10869;BMP180;62667;48.698;8.762;2023-07-31T02:35:03;96014.00;;;14.50
10869;BMP180;62667;48.698;8.762;2023-07-31T02:37:30;96009.00;;;14.50
10869;BMP180;62667;48.698;8.762;2023-07-31T02:39:58;96008.00;;;14.40
10869;BMP180;62667;48.698;8.762;2023-07-31T02:42:25;96005.00;;;14.40
10869;BMP180;62667;48.698;8.762;2023-07-31T02:44:53;96013.00;;;14.30
10869;BMP180;62667;48.698;8.762;2023-07-31T02:47:22;96004.00;;;14.30
10869;BMP180;62667;48.698;8.762;2023-07-31T02:49:50;95996.00;;;14.30
10869;BMP180;62667;48.698;8.762;2023-07-31T02:52:18;95994.00;;;14.30
10869;BMP180;62667;48.698;8.762;2023-07-31T02:54:46;95994.00;;;14.20
10869;BMP180;62667;48.698;8.762;2023-07-31T02:57:13;96004.00;;;14.30
10869;BMP180;62667;48.698;8.762;2023-07-31T02:59:40;95997.00;;;14.30
10869;BMP180;62667;48.698;8.762;2023-07-31T03:02:08;96003.00;;;14.20
10869;BMP180;62667;48.698;8.762;2023-07-31T03:04:35;95979.00;;;14.10
10869;BMP180;62667;48.698;8.762;2023-07-31T03:07:04;96007.00;;;14.00
10869;BMP180;62667;48.698;8.762;2023-07-31T03:09:32;96007.00;;;14.00
10869;BMP180;62667;48.698;8.762;2023-07-31T03:11:59;96007.00;;;14.00
10869;BMP180;62667;48.698;8.762;2023-07-31T03:14:27;95998.00;;;14.00
10869;BMP180;62667;48.698;8.762;2023-07-31T03:16:54;96003.00;;;14.20
10869;BMP180;62667;48.698;8.762;2023-07-31T03:19:22;96002.00;;;14.30
10869;BMP180;62667;48.698;8.762;2023-07-31T03:21:49;95993.00;;;14.10
10869;BMP180;62667;48.698;8.762;2023-07-31T03:24:18;96005.00;;;13.90
10869;BMP180;62667;48.698;8.762;2023-07-31T03:26:45;96009.00;;;13.90
10869;BMP180;62667;48.698;8.762;2023-07-31T03:29:12;96008.00;;;13.70
10869;BMP180;62667;48.698;8.762;2023-07-31T03:31:40;96011.00;;;13.80
10869;BMP180;62667;48.698;8.762;2023-07-31T03:34:07;96004.00;;;13.80
10869;BMP180;62667;48.698;8.762;2023-07-31T03:36:35;96001.00;;;13.80
10869;BMP180;62667;48.698;8.762;2023-07-31T03:39:03;96007.00;;;13.90
10869;BMP180;62667;48.698;8.762;2023-07-31T03:41:32;96006.00;;;13.80
10869;BMP180;62667;48.698;8.762;2023-07-31T03:43:59;96007.00;;;13.80
10869;BMP180;62667;48.698;8.762;2023-07-31T03:46:26;96007.00;;;13.80
10869;BMP180;62667;48.698;8.762;2023-07-31T03:48:54;96005.00;;;13.60
10869;BMP180;62667;48.698;8.762;2023-07-31T03:51:21;95994.00;;;13.70
10869;BMP180;62667;48.698;8.762;2023-07-31T03:53:49;95997.00;;;13.80
10869;BMP180;62667;48.698;8.762;2023-07-31T03:56:16;95999.00;;;13.80
10869;BMP180;62667;48.698;8.762;2023-07-31T03:58:45;95999.00;;;13.90
10869;BMP180;62667;48.698;8.762;2023-07-31T04:01:12;95998.00;;;13.80
10869;BMP180;62667;48.698;8.762;2023-07-31T04:03:40;96005.00;;;13.90
10869;BMP180;62667;48.698;8.762;2023-07-31T04:06:07;95989.00;;;13.80
10869;BMP180;62667;48.698;8.762;2023-07-31T04:08:34;95975.00;;;13.80
10869;BMP180;62667;48.698;8.762;2023-07-31T04:11:02;95984.00;;;13.90
10869;BMP180;62667;48.698;8.762;2023-07-31T04:13:30;95980.00;;;14.00
10869;BMP180;62667;48.698;8.762;2023-07-31T04:15:59;95982.00;;;14.00
10869;BMP180;62667;48.698;8.762;2023-07-31T04:18:26;95988.00;;;14.00
10869;BMP180;62667;48.698;8.762;2023-07-31T04:20:54;95993.00;;;14.10
10869;BMP180;62667;48.698;8.762;2023-07-31T04:23:21;95982.00;;;14.20
10869;BMP180;62667;48.698;8.762;2023-07-31T04:25:49;95990.00;;;14.20
10869;BMP180;62667;48.698;8.762;2023-07-31T04:28:16;95994.00;;;14.20
10869;BMP180;62667;48.698;8.762;2023-07-31T04:30:44;95995.00;;;14.10
10869;BMP180;62667;48.698;8.762;2023-07-31T04:33:13;95990.00;;;14.20
10869;BMP180;62667;48.698;8.762;2023-07-31T04:35:40;95991.00;;;14.10
10869;BMP180;62667;48.698;8.762;2023-07-31T04:38:07;95984.00;;;14.30
10869;BMP180;62667;48.698;8.762;2023-07-31T04:40:35;95986.00;;;14.30
10869;BMP180;62667;48.698;8.762;2023-07-31T04:43:03;95983.00;;;14.30
10869;BMP180;62667;48.698;8.762;2023-07-31T04:45:30;95986.00;;;14.30
10869;BMP180;62667;48.698;8.762;2023-07-31T04:47:58;95978.00;;;14.20
10869;BMP180;62667;48.698;8.762;2023-07-31T04:50:27;95970.00;;;14.30
10869;BMP180;62667;48.698;8.762;2023-07-31T04:52:56;95976.00;;;14.40
10869;BMP180;62667;48.698;8.762;2023-07-31T04:55:24;95975.00;;;14.30
10869;BMP180;62667;48.698;8.762;2023-07-31T04:57:52;95983.00;;;14.40
10869;BMP180;62667;48.698;8.762;2023-07-31T05:00:19;95980.00;;;14.60
10869;BMP180;62667;48.698;8.762;2023-07-31T05:02:47;95967.00;;;14.60
10869;BMP180;62667;48.698;8.762;2023-07-31T05:05:14;95979.00;;;14.70
10869;BMP180;62667;48.698;8.762;2023-07-31T05:07:43;95976.00;;;14.80
10869;BMP180;62667;48.698;8.762;2023-07-31T05:10:11;95961.00;;;14.80
10869;BMP180;62667;48.698;8.762;2023-07-31T05:12:38;95966.00;;;14.80
10869;BMP180;62667;48.698;8.762;2023-07-31T05:15:06;95963.00;;;14.90
10869;BMP180;62667;48.698;8.762;2023-07-31T05:17:34;95967.00;;;14.90
10869;BMP180;62667;48.698;8.762;2023-07-31T05:20:01;95974.00;;;15.20
10869;BMP180;62667;48.698;8.762;2023-07-31T05:22:29;95975.00;;;15.10
10869;BMP180;62667;48.698;8.762;2023-07-31T05:24:58;95986.00;;;15.20
10869;BMP180;62667;48.698;8.762;2023-07-31T05:27:26;95983.00;;;15.20
10869;BMP180;62667;48.698;8.762;2023-07-31T05:29:53;95990.00;;;15.30
10869;BMP180;62667;48.698;8.762;2023-07-31T05:32:20;95986.00;;;15.30
10869;BMP180;62667;48.698;8.762;2023-07-31T05:34:50;95985.00;;;15.30
10869;BMP180;62667;48.698;8.762;2023-07-31T05:37:17;95980.00;;;15.20
10869;BMP180;62667;48.698;8.762;2023-07-31T05:39:45;95980.00;;;15.10
10869;BMP180;62667;48.698;8.762;2023-07-31T05:42:14;95973.00;;;15.00
10869;BMP180;62667;48.698;8.762;2023-07-31T05:44:41;95978.00;;;15.30
10869;BMP180;62667;48.698;8.762;2023-07-31T05:47:09;95971.00;;;15.20
10869;BMP180;62667;48.698;8.762;2023-07-31T05:49:37;95975.00;;;15.20
10869;BMP180;62667;48.698;8.762;2023-07-31T05:52:05;95973.00;;;15.30
10869;BMP180;62667;48.698;8.762;2023-07-31T05:54:32;95970.00;;;15.20
10869;BMP180;62667;48.698;8.762;2023-07-31T05:57:00;95967.00;;;15.40
10869;BMP180;62667;48.698;8.762;2023-07-31T05:59:29;95962.00;;;15.40
10869;BMP180;62667;48.698;8.762;2023-07-31T06:01:59;95960.00;;;15.60
10869;BMP180;62667;48.698;8.762;2023-07-31T06:04:26;95957.00;;;15.60
10869;BMP180;62667;48.698;8.762;2023-07-31T06:06:54;95958.00;;;15.60
10869;BMP180;62667;48.698;8.762;2023-07-31T06:09:22;95955.00;;;15.70
10869;BMP180;62667;48.698;8.762;2023-07-31T06:11:49;95951.00;;;15.80
10869;BMP180;62667;48.698;8.762;2023-07-31T06:14:17;95939.00;;;16.00
10869;BMP180;62667;48.698;8.762;2023-07-31T06:16:45;95937.00;;;16.10
10869;BMP180;62667;48.698;8.762;2023-07-31T06:19:13;95950.00;;;16.20
10869;BMP180;62667;48.698;8.762;2023-07-31T06:21:40;95945.00;;;16.30
10869;BMP180;62667;48.698;8.762;2023-07-31T06:24:10;95955.00;;;16.00
10869;BMP180;62667;48.698;8.762;2023-07-31T06:26:38;95950.00;;;16.30
10869;BMP180;62667;48.698;8.762;2023-07-31T06:29:05;95940.00;;;16.30
10869;BMP180;62667;48.698;8.762;2023-07-31T06:31:33;95943.00;;;16.20
10869;BMP180;62667;48.698;8.762;2023-07-31T06:34:02;95942.00;;;16.30
10869;BMP180;62667;48.698;8.762;2023-07-31T06:36:29;95939.00;;;16.20
10869;BMP180;62667;48.698;8.762;2023-07-31T06:38:57;95947.00;;;16.10
10869;BMP180;62667;48.698;8.762;2023-07-31T06:41:24;95974.00;;;16.40
10869;BMP180;62667;48.698;8.762;2023-07-31T06:43:51;95961.00;;;16.40
10869;BMP180;62667;48.698;8.762;2023-07-31T06:46:19;95978.00;;;16.20
10869;BMP180;62667;48.698;8.762;2023-07-31T06:48:46;95964.00;;;16.40
10869;BMP180;62667;48.698;8.762;2023-07-31T06:51:15;95975.00;;;16.30
10869;BMP180;62667;48.698;8.762;2023-07-31T06:53:43;95972.00;;;16.50
10869;BMP180;62667;48.698;8.762;2023-07-31T06:56:11;95964.00;;;16.50
10869;BMP180;62667;48.698;8.762;2023-07-31T06:58:39;95960.00;;;16.80
10869;BMP180;62667;48.698;8.762;2023-07-31T07:01:06;95954.00;;;16.70
10869;BMP180;62667;48.698;8.762;2023-07-31T07:03:33;95948.00;;;16.90
10869;BMP180;62667;48.698;8.762;2023-07-31T07:06:01;95956.00;;;17.10
10869;BMP180;62667;48.698;8.762;2023-07-31T07:08:30;95956.00;;;17.10
10869;BMP180;62667;48.698;8.762;2023-07-31T07:10:57;95960.00;;;17.00
10869;BMP180;62667;48.698;8.762;2023-07-31T07:13:25;95954.00;;;16.80
10869;BMP180;62667;48.698;8.762;2023-07-31T07:15:52;95954.00;;;17.10
10869;BMP180;62667;48.698;8.762;2023-07-31T07:18:20;95953.00;;;17.10
10869;BMP180;62667;48.698;8.762;2023-07-31T07:20:49;95944.00;;;16.70
10869;BMP180;62667;48.698;8.762;2023-07-31T07:23:16;95951.00;;;16.90
10869;BMP180;62667;48.698;8.762;2023-07-31T07:25:46;95950.00;;;17.00
10869;BMP180;62667;48.698;8.762;2023-07-31T07:28:14;95941.00;;;17.00
10869;BMP180;62667;48.698;8.762;2023-07-31T07:30:41;95935.00;;;17.20
10869;BMP180;62667;48.698;8.762;2023-07-31T07:33:09;95932.00;;;17.10
10869;BMP180;62667;48.698;8.762;2023-07-31T07:35:37;95933.00;;;17.20
10869;BMP180;62667;48.698;8.762;2023-07-31T07:38:05;95939.00;;;17.50
10869;BMP180;62667;48.698;8.762;2023-07-31T07:40:32;95939.00;;;17.60
10869;BMP180;62667;48.698;8.762;2023-07-31T07:43:01;95939.00;;;17.70
10869;BMP180;62667;48.698;8.762;2023-07-31T07:45:29;95932.00;;;17.90
10869;BMP180;62667;48.698;8.762;2023-07-31T07:47:56;95930.00;;;18.10
10869;BMP180;62667;48.698;8.762;2023-07-31T07:50:25;95940.00;;;18.10
10869;BMP180;62667;48.698;8.762;2023-07-31T07:52:53;95937.00;;;18.00
10869;BMP180;62667;48.698;8.762;2023-07-31T07:55:20;95940.00;;;18.10
10869;BMP180;62667;48.698;8.762;2023-07-31T07:57:48;95941.00;;;18.20
10869;BMP180;62667;48.698;8.762;2023-07-31T08:00:18;95942.00;;;17.60
10869;BMP180;62667;48.698;8.762;2023-07-31T08:02:45;95935.00;;;17.50
10869;BMP180;62667;48.698;8.762;2023-07-31T08:05:13;95937.00;;;17.80
10869;BMP180;62667;48.698;8.762;2023-07-31T08:07:41;95936.00;;;18.00
10869;BMP180;62667;48.698;8.762;2023-07-31T08:10:09;95941.00;;;18.20
10869;BMP180;62667;48.698;8.762;2023-07-31T08:12:36;95936.00;;;18.20
10869;BMP180;62667;48.698;8.762;2023-07-31T08:15:04;95938.00;;;17.40
10869;BMP180;62667;48.698;8.762;2023-07-31T08:17:33;95933.00;;;17.60
10869;BMP180;62667;48.698;8.762;2023-07-31T08:20:01;95927.00;;;17.90
10869;BMP180;62667;48.698;8.762;2023-07-31T08:22:28;95930.00;;;17.90
10869;BMP180;62667;48.698;8.762;2023-07-31T08:24:56;95931.00;;;18.10
10869;BMP180;62667;48.698;8.762;2023-07-31T08:27:23;95926.00;;;17.90
10869;BMP180;62667;48.698;8.762;2023-07-31T08:29:52;95935.00;;;18.00
10869;BMP180;62667;48.698;8.762;2023-07-31T08:32:20;95928.00;;;18.20
10869;BMP180;62667;48.698;8.762;2023-07-31T08:34:48;95922.00;;;17.90
10869;BMP180;62667;48.698;8.762;2023-07-31T08:37:16;95926.00;;;18.20
10869;BMP180;62667;48.698;8.762;2023-07-31T08:39:43;95921.00;;;18.00
10869;BMP180;62667;48.698;8.762;2023-07-31T08:42:11;95921.00;;;18.20
10869;BMP180;62667;48.698;8.762;2023-07-31T08:44:39;95918.00;;;18.00
10869;BMP180;62667;48.698;8.762;2023-07-31T08:47:07;95920.00;;;18.00
10869;BMP180;62667;48.698;8.762;2023-07-31T08:49:35;95916.00;;;18.10
10869;BMP180;62667;48.698;8.762;2023-07-31T08:52:06;95920.00;;;18.60
10869;BMP180;62667;48.698;8.762;2023-07-31T08:54:34;95917.00;;;18.60
10869;BMP180;62667;48.698;8.762;2023-07-31T08:57:02;95911.00;;;19.10
10869;BMP180;62667;48.698;8.762;2023-07-31T08:59:31;95901.00;;;18.90
10869;BMP180;62667;48.698;8.762;2023-07-31T09:02:05;95879.00;;;19.00
10869;BMP180;62667;48.698;8.762;2023-07-31T09:04:33;95876.00;;;18.60
10869;BMP180;62667;48.698;8.762;2023-07-31T09:07:02;95886.00;;;18.70
10869;BMP180;62667;48.698;8.762;2023-07-31T09:09:32;95893.00;;;18.80
10869;BMP180;62667;48.698;8.762;2023-07-31T09:11:59;95885.00;;;19.00
10869;BMP180;62667;48.698;8.762;2023-07-31T09:14:28;95889.00;;;18.80
10869;BMP180;62667;48.698;8.762;2023-07-31T09:16:57;95888.00;;;18.80
10869;BMP180;62667;48.698;8.762;2023-07-31T09:19:26;95894.00;;;18.80
10869;BMP180;62667;48.698;8.762;2023-07-31T09:21:54;95898.00;;;19.40
10869;BMP180;62667;48.698;8.762;2023-07-31T09:24:28;95886.00;;;19.80
10869;BMP180;62667;48.698;8.762;2023-07-31T09:26:59;95899.00;;;19.70
10869;BMP180;62667;48.698;8.762;2023-07-31T09:29:28;95903.00;;;19.60
10869;BMP180;62667;48.698;8.762;2023-07-31T09:31:56;95911.00;;;19.30
10869;BMP180;62667;48.698;8.762;2023-07-31T09:34:29;95891.00;;;18.90
10869;BMP180;62667;48.698;8.762;2023-07-31T09:37:01;95877.00;;;18.80
10869;BMP180;62667;48.698;8.762;2023-07-31T09:39:30;95861.00;;;19.00
10869;BMP180;62667;48.698;8.762;2023-07-31T09:41:59;95872.00;;;18.90
10869;BMP180;62667;48.698;8.762;2023-07-31T09:44:38;95854.00;;;19.00
10869;BMP180;62667;48.698;8.762;2023-07-31T09:47:06;95847.00;;;19.50
10869;BMP180;62667;48.698;8.762;2023-07-31T09:49:34;95856.00;;;19.60
10869;BMP180;62667;48.698;8.762;2023-07-31T09:52:01;95851.00;;;19.80
10869;BMP180;62667;48.698;8.762;2023-07-31T09:54:38;95847.00;;;19.60
10869;BMP180;62667;48.698;8.762;2023-07-31T09:57:08;95843.00;;;19.70
10869;BMP180;62667;48.698;8.762;2023-07-31T09:59:36;95829.00;;;20.10
10869;BMP180;62667;48.698;8.762;2023-07-31T10:02:06;95839.00;;;20.20
10869;BMP180;62667;48.698;8.762;2023-07-31T10:04:37;95843.00;;;19.90
10869;BMP180;62667;48.698;8.762;2023-07-31T10:07:05;95825.00;;;19.90
10869;BMP180;62667;48.698;8.762;2023-07-31T10:09:33;95838.00;;;20.30
10869;BMP180;62667;48.698;8.762;2023-07-31T10:12:03;95827.00;;;19.90
10869;BMP180;62667;48.698;8.762;2023-07-31T10:14:37;95804.00;;;19.90
10869;BMP180;62667;48.698;8.762;2023-07-31T10:17:06;95822.00;;;19.90
10869;BMP180;62667;48.698;8.762;2023-07-31T10:19:35;95812.00;;;20.00
10869;BMP180;62667;48.698;8.762;2023-07-31T10:22:04;95811.00;;;20.20
10869;BMP180;62667;48.698;8.762;2023-07-31T10:24:32;95816.00;;;20.60
10869;BMP180;62667;48.698;8.762;2023-07-31T10:27:00;95800.00;;;21.10
10869;BMP180;62667;48.698;8.762;2023-07-31T10:29:29;95813.00;;;21.00
10869;BMP180;62667;48.698;8.762;2023-07-31T10:31:59;95806.00;;;20.70
10869;BMP180;62667;48.698;8.762;2023-07-31T10:34:27;95788.00;;;20.80
10869;BMP180;62667;48.698;8.762;2023-07-31T10:37:22;95796.00;;;21.30
10869;BMP180;62667;48.698;8.762;2023-07-31T10:39:57;95791.00;;;21.80
10869;BMP180;62667;48.698;8.762;2023-07-31T10:42:32;95790.00;;;21.30
10869;BMP180;62667;48.698;8.762;2023-07-31T10:45:02;95791.00;;;21.80
10869;BMP180;62667;48.698;8.762;2023-07-31T10:47:31;95798.00;;;21.50
10869;BMP180;62667;48.698;8.762;2023-07-31T10:50:16;95789.00;;;21.20
10869;BMP180;62667;48.698;8.762;2023-07-31T10:52:48;95793.00;;;21.70
10869;BMP180;62667;48.698;8.762;2023-07-31T10:55:27;95789.00;;;21.70
10869;BMP180;62667;48.698;8.762;2023-07-31T10:57:55;95793.00;;;21.50
10869;BMP180;62667;48.698;8.762;2023-07-31T11:00:26;95796.00;;;21.60
10869;BMP180;62667;48.698;8.762;2023-07-31T11:02:59;95797.00;;;21.30
10869;BMP180;62667;48.698;8.762;2023-07-31T11:05:47;95799.00;;;21.20
10869;BMP180;62667;48.698;8.762;2023-07-31T11:08:17;95804.00;;;21.10
10869;BMP180;62667;48.698;8.762;2023-07-31T11:10:46;95821.00;;;20.80
10869;BMP180;62667;48.698;8.762;2023-07-31T11:13:14;95819.00;;;20.50
10869;BMP180;62667;48.698;8.762;2023-07-31T11:15:42;95818.00;;;20.50
10869;BMP180;62667;48.698;8.762;2023-07-31T11:18:11;95824.00;;;20.90
10869;BMP180;62667;48.698;8.762;2023-07-31T11:20:39;95832.00;;;20.70
10869;BMP180;62667;48.698;8.762;2023-07-31T11:23:08;95827.00;;;20.50
10869;BMP180;62667;48.698;8.762;2023-07-31T11:25:37;95821.00;;;20.30
10869;BMP180;62667;48.698;8.762;2023-07-31T11:28:08;95821.00;;;20.30
10869;BMP180;62667;48.698;8.762;2023-07-31T11:30:36;95815.00;;;20.60
10869;BMP180;62667;48.698;8.762;2023-07-31T11:33:04;95811.00;;;20.50
10869;BMP180;62667;48.698;8.762;2023-07-31T11:35:35;95801.00;;;20.70
10869;BMP180;62667;48.698;8.762;2023-07-31T11:38:02;95806.00;;;20.70
10869;BMP180;62667;48.698;8.762;2023-07-31T11:40:30;95806.00;;;20.20
10869;BMP180;62667;48.698;8.762;2023-07-31T11:42:58;95799.00;;;20.50
10869;BMP180;62667;48.698;8.762;2023-07-31T11:45:27;95801.00;;;20.30
10869;BMP180;62667;48.698;8.762;2023-07-31T11:47:55;95791.00;;;20.50
10869;BMP180;62667;48.698;8.762;2023-07-31T11:50:24;95790.00;;;20.70
10869;BMP180;62667;48.698;8.762;2023-07-31T11:52:56;95781.00;;;20.50
10869;BMP180;62667;48.698;8.762;2023-07-31T11:55:24;95784.00;;;20.20
10869;BMP180;62667;48.698;8.762;2023-07-31T11:57:54;95781.00;;;20.10
10869;BMP180;62667;48.698;8.762;2023-07-31T12:00:23;95783.00;;;19.90
10869;BMP180;62667;48.698;8.762;2023-07-31T12:02:51;95788.00;;;20.00
10869;BMP180;62667;48.698;8.762;2023-07-31T12:05:19;95780.00;;;19.90
10869;BMP180;62667;48.698;8.762;2023-07-31T12:07:48;95772.00;;;20.40
10869;BMP180;62667;48.698;8.762;2023-07-31T12:10:30;95774.00;;;20.40
10869;BMP180;62667;48.698;8.762;2023-07-31T12:13:04;95777.00;;;20.60
10869;BMP180;62667;48.698;8.762;2023-07-31T12:15:36;95783.00;;;20.70
10869;BMP180;62667;48.698;8.762;2023-07-31T12:18:08;95763.00;;;20.60
10869;BMP180;62667;48.698;8.762;2023-07-31T12:20:41;95765.00;;;20.60
10869;BMP180;62667;48.698;8.762;2023-07-31T12:23:14;95768.00;;;20.30
10869;BMP180;62667;48.698;8.762;2023-07-31T12:25:43;95757.00;;;20.40
10869;BMP180;62667;48.698;8.762;2023-07-31T12:28:11;95736.00;;;20.20
10869;BMP180;62667;48.698;8.762;2023-07-31T12:30:40;95754.00;;;20.40
10869;BMP180;62667;48.698;8.762;2023-07-31T12:33:14;95739.00;;;21.00
10869;BMP180;62667;48.698;8.762;2023-07-31T12:35:43;95738.00;;;20.90
10869;BMP180;62667;48.698;8.762;2023-07-31T12:38:12;95727.00;;;21.40
10869;BMP180;62667;48.698;8.762;2023-07-31T12:40:41;95731.00;;;21.50
10869;BMP180;62667;48.698;8.762;2023-07-31T12:43:10;95724.00;;;21.30
10869;BMP180;62667;48.698;8.762;2023-07-31T12:45:37;95711.00;;;21.50
10869;BMP180;62667;48.698;8.762;2023-07-31T12:48:05;95695.00;;;22.00
10869;BMP180;62667;48.698;8.762;2023-07-31T12:50:33;95692.00;;;22.30
10869;BMP180;62667;48.698;8.762;2023-07-31T12:53:03;95705.00;;;22.60
10869;BMP180;62667;48.698;8.762;2023-07-31T12:55:31;95707.00;;;22.00
10869;BMP180;62667;48.698;8.762;2023-07-31T12:58:00;95695.00;;;22.20
10869;BMP180;62667;48.698;8.762;2023-07-31T13:00:30;95688.00;;;22.50
10869;BMP180;62667;48.698;8.762;2023-07-31T13:02:59;95677.00;;;22.50
10869;BMP180;62667;48.698;8.762;2023-07-31T13:05:27;95692.00;;;23.00
10869;BMP180;62667;48.698;8.762;2023-07-31T13:07:55;95670.00;;;22.80
10869;BMP180;62667;48.698;8.762;2023-07-31T13:10:23;95672.00;;;22.70
10869;BMP180;62667;48.698;8.762;2023-07-31T13:12:52;95675.00;;;22.40
10869;BMP180;62667;48.698;8.762;2023-07-31T13:15:20;95675.00;;;22.20
10869;BMP180;62667;48.698;8.762;2023-07-31T13:17:49;95673.00;;;22.10
10869;BMP180;62667;48.698;8.762;2023-07-31T13:20:16;95677.00;;;22.20
10869;BMP180;62667;48.698;8.762;2023-07-31T13:22:44;95673.00;;;22.20
10869;BMP180;62667;48.698;8.762;2023-07-31T13:25:11;95688.00;;;21.90
10869;BMP180;62667;48.698;8.762;2023-07-31T13:27:39;95681.00;;;21.60
10869;BMP180;62667;48.698;8.762;2023-07-31T13:30:08;95686.00;;;21.50
10869;BMP180;62667;48.698;8.762;2023-07-31T13:32:35;95670.00;;;21.50
10869;BMP180;62667;48.698;8.762;2023-07-31T13:35:07;95680.00;;;21.50
10869;BMP180;62667;48.698;8.762;2023-07-31T13:37:34;95672.00;;;21.70
10869;BMP180;62667;48.698;8.762;2023-07-31T13:40:02;95688.00;;;21.90
10869;BMP180;62667;48.698;8.762;2023-07-31T13:42:32;95674.00;;;21.30
10869;BMP180;62667;48.698;8.762;2023-07-31T13:44:59;95677.00;;;21.10
10869;BMP180;62667;48.698;8.762;2023-07-31T13:47:27;95673.00;;;20.80
10869;BMP180;62667;48.698;8.762;2023-07-31T13:49:55;95678.00;;;20.90
10869;BMP180;62667;48.698;8.762;2023-07-31T13:52:23;95664.00;;;21.10
10869;BMP180;62667;48.698;8.762;2023-07-31T13:54:51;95665.00;;;21.10
10869;BMP180;62667;48.698;8.762;2023-07-31T13:57:18;95670.00;;;21.20
10869;BMP180;62667;48.698;8.762;2023-07-31T13:59:46;95669.00;;;21.40
10869;BMP180;62667;48.698;8.762;2023-07-31T14:02:13;95687.00;;;21.30
10869;BMP180;62667;48.698;8.762;2023-07-31T14:04:41;95660.00;;;21.20
10869;BMP180;62667;48.698;8.762;2023-07-31T14:07:08;95675.00;;;21.30
10869;BMP180;62667;48.698;8.762;2023-07-31T14:09:37;95668.00;;;21.40
10869;BMP180;62667;48.698;8.762;2023-07-31T14:12:05;95658.00;;;21.60
10869;BMP180;62667;48.698;8.762;2023-07-31T14:14:33;95661.00;;;21.70
10869;BMP180;62667;48.698;8.762;2023-07-31T14:17:01;95662.00;;;21.60